MET: Información y Pronóstico Aeronáutico

///////////////////////////////////////////////////////////////////////////////////////////////////////////////////////////////////////////////////////////////////////////////////////////////////////////////////////////////////////////////

Member for

4 años
Enviado por meteorologia el Jue, 10/06/2021 - 09:33
5/8

5 DE AGOSTO 2022

INFORMACION METEOROLOGICA AERONAUTICA (METAR) 18:00 UTC

Aeropuerto AEROPARQUE J. NEWBERY

05 - 18:00 METAR SABE 051800Z 21005KT 150V280 9000 NSC 16/M00 Q1019 NOSIG RMK PP000 =

Aeropuerto BAHIA BLANCA

05 - 18:05 METAR SAZB 051800Z VRB05KT CAVOK 10/02 Q1019 =

Aeropuerto BARILOCHE

05 - 18:00 METAR SAZS 051800Z 09006KT 7000 -RASN BKN029 BKN040 03/M01 Q1017 RMK PP/// =

Aeropuerto CATAMARCA

05 - 18:00 METAR SANC 051800Z 02026G38KT 9999 FEW050 21/04 Q1012 =

Aeropuerto CHAPELCO

05 - 18:00 METAR SAZY 051800Z 32003KT 9999 -RA OVC010 02/00 Q1016 =

Aeropuerto COMODORO RIVADAVIA

05 - 18:00 METAR SAVC 051800Z 21012KT 170V230 9999 SCT045 08/00 Q1020 RMK PP000 =

Aeropuerto CORDOBA

05 - 18:00 METAR SACO 051800Z 04018KT 9999 FEW040 18/02 Q1016 NOSIG RMK PP000 =

Aeropuerto CORRIENTES

05 - 18:00 METAR SARC 051800Z 16007KT 9000 NSC 17/07 Q1018 =

Aeropuerto EL CALAFATE

05 - 18:00 METAR SAWC 051800Z 09006KT CAVOK 06/M04 Q1022 =

Aeropuerto EL PALOMAR

05 - 18:00 METAR SADP 051800Z 23008KT 180V270 CAVOK 17/00 Q1018 RMK PP000 =

Aeropuerto ESQUEL

05 - 18:00 METAR SAVE 051800Z 05008KT 9999 FEW035 03/M04 Q1018 =

Aeropuerto EZEIZA

05 - 18:00 METAR SAEZ 051800Z 25005KT CAVOK 16/01 Q1019 NOSIG RMK PP000 =

Aeropuerto FORMOSA

05 - 18:00 METAR SARF 051800Z 14005KT CAVOK 20/08 Q1017 =

Aeropuerto IGUAZU/CATARATAS

05 - 18:00 METAR SARI 051800Z 20004KT 160V280 9999 OVC020 16/13 Q1017 RMK PP000 =

Aeropuerto JUJUY

05 - 18:00 METAR SASJ 051800Z 09008KT 060V130 9999 FEW065 19/07 Q1016 RMK PP000 =

Aeropuerto LA RIOJA

05 - 18:00 METAR SANL 051800Z 23006KT CAVOK 20/08 Q1013 =

Aeropuerto MALARGUE

05 - 18:00 METAR SAMM 051800Z 05005KT 9999 FEW030 SCT200 12/00 =

Aeropuerto MAR DEL PLATA

05 - 18:00 METAR SAZM 051800Z 23006KT 180V260 9999 SCT030 13/04 Q1017 RMK PP/// =

Aeropuerto MENDOZA

05 - 18:00 METAR SAME 051800Z 11009KT 070V180 9999 FEW040 16/05 Q1013 =

Aeropuerto MORON

05 - 18:00 METAR SADM 051800Z 20006KT CAVOK 17/02 Q1019 =

Aeropuerto NEUQUEN

05 - 18:00 METAR SAZN 051800Z 09003KT CAVOK 09/02 Q1019 =

Aeropuerto PARANA

05 - 18:00 METAR SAAP 051800Z 05006KT 340V070 CAVOK 18/04 Q1019 =

Aeropuerto POSADAS

05 - 18:00 METAR SARP 051800Z 18006KT 9999 FEW025 18/09 Q1018 =

Aeropuerto PUERTO MADRYN

05 - 18:00 METAR SAVY 051800Z 23014KT 9999 FEW025 10/M01 Q1017 =

Aeropuerto RECONQUISTA

05 - 18:00 METAR SATR 051800Z 11006KT CAVOK 18/04 Q1018 =

Aeropuerto RESISTENCIA

05 - 18:00 METAR SARE 051800Z 13008KT 100V190 CAVOK 17/07 Q1018 RMK PP/// =

Aeropuerto RIO CUARTO

05 - 18:00 METAR SAOC 051800Z 36010KT 9999 NSC 18/05 Q1015 =

Aeropuerto RIO GALLEGOS

05 - 18:00 METAR SAWG 051800Z 20011KT 9999 -RA FEW030 BKN060 04/02 Q1022 =

Aeropuerto RIO GRANDE

05 - 18:00 METAR SAWE 051800Z VRB02KT CAVOK 05/02 Q1021 RMK PP000 =

Aeropuerto ROSARIO

05 - 18:00 METAR SAAR 051800Z 02004KT 330V090 CAVOK 20/02 Q1018 RMK PP000 =

Aeropuerto SALTA

05 - 18:01 METAR SASA 051800Z 05007KT 020V110 9999 FEW040 19/06 Q1016 RMK PP000 =

Aeropuerto SAN FERNANDO

05 - 18:00 METAR SADF 051800Z 19006KT CAVOK 16/01 Q1018 RMK PP000 =

Aeropuerto SAN JUAN

05 - 18:00 METAR SANU 051800Z 18003KT CAVOK 18/04 Q1013 =

Aeropuerto SAN LUIS

05 - 18:00 METAR SAOU 051800Z 32013KT 9999 FEW040 19/05 Q1014 =

Aeropuerto SAN RAFAEL

05 - 18:00 METAR SAMR 051800Z 14003KT CAVOK 16/M04 Q1014 =

Aeropuerto SANTA ROSA

05 - 18:00 METAR SAZR 051800Z 09004KT CAVOK 17/02 Q1017 =

Aeropuerto SANTIAGO DEL ESTERO

05 - 18:00 METAR SANE 051800Z 05008KT CAVOK 21/04 Q1015 =

Aeropuerto SAUCE VIEJO

05 - 18:00 METAR SAAV 051800Z 09006KT CAVOK 20/06 Q1018 RMK PP/// =

Aeropuerto TANDIL

05 - 18:00 METAR SAZT 051800Z 25009KT CAVOK 14/01 Q1017 =

Aeropuerto TERMAS DE RIO HONDO

05 - 18:00 METAR SANR 051800Z 02010KT CAVOK 22/04 Q1014 =

Aeropuerto TRELEW

05 - 18:00 METAR SAVT 051800Z 23015KT 9999 SCT030 SCT200 10/M01 Q1018 =

Aeropuerto TUCUMAN

05 - 18:00 METAR SANT 051800Z 09007KT 040V120 8000 BKN057 21/06 Q1014 RMK PP000 =

Aeropuerto USHUAIA

05 - 18:00 METAR SAWH 051800Z 24011KT 9999 VCSH FEW012 SCT035 05/03 Q1021 RMK PP999 =

Aeropuerto VIEDMA

05 - 18:00 METAR SAVV 051800Z 23016KT 9999 SCT025 SCT200 10/01 Q1017 =

Aeropuerto VILLA REYNOLDS

05 - 18:00 METAR SAOR 051800Z 32006KT 9999 SCT030 FEW100 22/05 Q1014 =

 PRONOSTICO DE AERODROMO (TAF) 17:00 UTC

Estación AEROPARQUE J. NEWBERY

05 - 17:00 TAF SABE 051700Z 0518/0618 VRB03KT CAVOK TX16/0518Z TN08/0610Z BECMG 0519/0520 05010KT =

Estación BAHIA BLANCA

05 - 17:00 TAF SAZB 051700Z 0518/0618 25008KT CAVOK TX10/0518Z TN04/0611Z BECMG 0621/0623 34006KT 9999 BKN040 BECMG 0603/0605 8000 OVC030 BECMG 0606/0608 5000 -RA BKN010 OVC030 TEMPO 0608/0612 3000 -RA BR BKN006 OVC020 BECMG 0612/0614 15012KT 5000 RA BKN010 OVC020 FEW030TCU =

Estación BARILOCHE

05 - 17:00 TAF SAZS 051700Z 0518/0618 15010KT 9999 FEW030 BKN040 OVC100 TX03/0518Z TNM01/0606Z TEMPO 0518/0522 6000 -RASN BKN030 BECMG 0522/0601 9999 BKN020 BECMG 0606/0608 6000 SN BKN015 OVC040 TEMPO 0608/0616 2000 SN =

Estación CATAMARCA

05 - 17:00 TAF SANC 051700Z 0518/0618 02025G35KT CAVOK TX22/0618Z TN11/0610 BECMG 0523/0601 02010KT BECMG 0608/0610 VRB03KT BECMG 0613/0616 23010KT 9999 FEW040 =

Estación CHAPELCO

05 - 17:00 TAF SAZY 051700Z 0518/0618 VRB03KT 6000 -RA OVC010 TX03/0519Z TNM03/0612Z TEMPO 0519/0524 9999 NSW BKN015 OVC025 BECMG 0603/0605 3000 -SN BR BKN010 OVC020 BECMG 0612/0614 12015G25KT 5000 SN BKN015 OVC020 =

Estación COMODORO RIVADAVIA

05 - 17:00 TAF SAVC 051700 0518/0618 22015KT 9999 SCT035 BKN040 TX09/0519Z TN03/0610Z BECMG 0609/0611 20010KT RA FEW008 SCT025 OVC035 =

Estación CORDOBA

05 - 17:00 TAF SACO 051700Z 0518/0618 04016KT 9999 FEW040 TX19/068Z TN05/0611Z BECMG 0523/0601 36010KT 9999 FEW050 PROB40 0609/0611 VRB03KT 7000 SCT050 BECMG 0615/0618 07010KT 9999 FEW040 =

Estación CORRIENTES

05 - 17:00 TAF SARC 051700Z 0518/0618 14010KT 8000 NSC TX19/0519Z TN06/0610Z PROB30 TEMPO 0606/0611 0200 FG VV000 =

Estación EL CALAFATE

05 - 17:00 TAF SAWC 051700Z 0518/0618 VRB05KT CAVOK TX05/0519Z TNM05/0610Z BECMG 0603/0605 14002KT 9999 SCT030 SCT100 =

Estación EL PALOMAR

05 - 17:00 TAF SADP 051700Z 0518/0618 20005KT CAVOK TX16/0618Z TN05/0511Z BECMG 0519/0521 02006KT BECMG 0605/0607 VRB02KT 8000 NSC BECMG 0607/0609 3000 BR PROB30 TEMPO 0609/0611 0800 FG BECMG 0612/0614 07005KT CAVOK BECMG 0614/0616 9999 SCT025 =

Estación ESQUEL

05 - 17:00 TAF SAVE 051700Z 0518/0618 VRB03KT CAVOK TX04/0519Z TNM06/0610Z BECMG 0603/0605 9999 BKN040 BECMG 0615/0617 09005KT SN SCT020 OVC040 =

Estación EZEIZA

05 - 17:00 TAF SAEZ 051700Z 0518/0618 20005KT CAVOK TX16/0618Z TN04/0511Z BECMG 0519/0521 02006KT BECMG 0605/0607 VRB02KT 8000 NSC BECMG 0607/0609 3000 BR TEMPO 0609/0611 0800 FG BECMG 0612/0614 07005KT 7000 NSW BECMG 0614/0616 9999 SCT025 =

Estación FORMOSA

05 - 17:00 TAF SARF 051700Z 0518/0618 14005KT CAVOK TX22/0519Z TN10/0610Z PROB30 TEMPO 0606/0611 0500 FG VV000 =

Estación IGUAZU/CATARATAS

05 - 17:00 TAF SARI 051700Z 0518/0618 VRB02KT 9999 SCT014 BKN017 TX19/0519Z TN15/0610Z PROB30 TEMPO 0608/0612 5000 TSRA OVC010 FEW055CB =

Estación JUJUY

05 - 17:00 TAF SASJ 051700Z 0518/0618 07007KT CAVOK TX23/0618Z TN09/0611Z BECMG 0602/0605 27005KT 9999 BKN015 PROB40 0609/0611 VRB03KT 5000 BR SCT010 BECMG 0615/0617 07010KT 9999 FEW030 =

Estación LA RIOJA

05 - 17:00 TAF SANL 051700Z 0518/0618 18009KT CAVOK TX20/0618Z TN06/0610Z BECMG 0519/0522 VRB04KT BECMG 0603/0605 23010KT 9999 FEW040 =

Estación MAR DEL PLATA

05 - 17:00 SAZM 051700Z 0518/0618 21010KT 9999 SCT030 TX13/0518Z TN04/0611Z BECMG 0521/0522 VRB03KT BECMG 0523/0601 5000 BR SCT015 BECMG 0606/0608 23005KT 9999 SCT020 BECMG 0615/0616 16010KT 9999 BKN030 =

Estación MENDOZA

05 - 17:00 TAF SAME 051700Z 0518/0618 11010KT 9999 FEW040 TX18/0520Z TN07/0611Z BECMG 0605/0607 18010KT 9999 SCT040 =

Estación NEUQUEN

05 - 17:00 TAF SAZN 051700Z 0518/0618 VRB03KT CAVOK TX08/0518Z TN02/0611Z TEMPO 0521/0524 8000 -RA BKN040 BECMG 0600/0602 14010KT 6000 RA BKN015 OVC030 TEMPO 0606/0615 9999 BKN020 OVC060 =

Estación PARANA

05 - 17:00 TAF SAAP 051700Z 0518/0618 02005KT CAVOK TX19/0518Z TN03/0611Z BECMG 0606/0608 3000 BR NSC PROB40 0609/0611 VRB03KT 0800 FG BECMG 0613/0615 07010KT CAVOK =

Estación POSADAS

05 - 17:00 TAF SARP 051700Z 0518/0618 14010KT 9999 SCT025 TX20/0519Z TN09/0610Z PROB40 TEMPO 0606/0612 1500 BR BKN010 =

Estación RESISTENCIA

05 - 17:00 TAF SARE 051700Z 0518/0618 14010KT 8000 NSC TX19/0519Z TN06/0610Z PROB30 TEMPO 0606/0611 0200 FG VV000 =

Estación RIO CUARTO

05 - 17:00 TAF SAOC 051700Z 0518/0618 36016KT CAVOK TX18/0618Z TN04/0610Z BECMG 0602/0604 36015KT PROB40 0609/0611 36005KT 5000 BR FEW030 BECMG 0615/0617 02015KT 9999 SCT040 =

Estación RIO GALLEGOS

05 - 17:00 TAF SAWG 051700 0518/0618 23012KT 9999 -RADZ FEW015 BKN030 BKN050 TX06/0519Z TN00/0610Z BECMG 0521/0522 23005KT 9999 NSW SCT008 BKN015 OVC050 TEMPO 0610/0613 0800 BCFG BKN008 OVC020 =

Estación RIO GRANDE

05 - 17:00 TAF SAWE 051700 0518/0618 22005KT 9999 BKN035 TX04/0519Z TNM01/0610Z BECMG 0606/0608 0800 FZFG SCT010 BECMG 0614/0616 VRB05KT CAVOK =

Estación ROSARIO

05 - 17:00 TAF SAAR 051700Z 0518/0618 02005KT CAVOK TX20/0518Z TN02/0611Z BECMG 0522/0524 08010KT BECMG 0603/0605 36005KT =

Estación SALTA

05 - 17:00 TAF SASA 051700Z 0518/0618 05006KT 9999 FEW040 TX21/0618Z TN07/0611Z BECMG 0602/0604 23005KT 8000 SCT020 PROB40 TEMPO 0608/0610 VRB03KT 2000 BR BKN015 BECMG 0615 /0617 05015KT 9999 SCT050 =

Estación SAN FERNANDO

05 - 17:00 TAF SADF 051700Z 0518/0618 20005KT CAVOK TX16/0618Z TN06/0609Z BECMG 0520/0522 05005KT BECMG 0616/0618 09010KT =

Estación SAN JUAN

05 - 17:00 TAF SANU 051700Z 0518/0618 16007KT CAVOK TX19/0520Z TN01/0611Z BECMG 0602/0604 20005KT BECMG 0612/0614 18017KT 9999 SCT040 =

Estación SAN LUIS

05 - 17:00 TAF SAOU 051700Z 0518/0618 34012KT 9999 SCT040 TX21/0518Z TN07/0611Z BECMG 0600/0602 02005KT 9999 FEW040 BECMG 0616/0618 16010KT 9999 SCT040 =

Estación SAN RAFAEL

05 - 17:00 TAF SAMR 051700Z 0518/0618 05007KT CAVOK TX16/0519Z TN04/0611Z BECMG 0600/0602 16010KT 9999 SCT030 BECMG 0611/0613 SCT010 OVC030 =

Estación SANTA ROSA

05 - 17:00 TAF SAZR 051700Z 0518/0618 07006KT CAVOK TX17/0518Z TN03/0611Z BECMG 0521/0523 15010KT BKN040 BECMG 0602/0604 15018KT 8000 -RA OVC030 BECMG 0612/0614 7000 SHRA BKN020 OVC030 FEW040TCU =

Estación SANTIAGO DEL ESTERO

05 - 17:00 TAF SANE 051700Z 0518/0618 05006KT CAVOK TX23/0618Z TN08/0610Z BECMG 0519/0522 07015KT BECMG 0609/0612 16005KT 9999 FEW030 =

Estación SAUCE VIEJO

05 - 17:00 TAF SAAV 051700Z 0518/0618 05005KT CAVOK TX20/0518Z TN03/0611Z BECMG 0606/0608 3000 BR NSC PROB40 0609/0611 VRB03KT 0800 FG BECMG 0613/0615 07010KT CAVOK =

Estación TERMAS DE RIO HONDO

05 - 17:00 TAF SANR 051700Z 0518/0618 02009KT CAVOK TX23/0618Z TN08/0610Z BECMG 0602/0604 09005KT 9999 FEW050 BECMG 0613/0615 22005KT 9999 SCT030 =

Estación TRELEW

05 - 17:00 TAF SAVT 051700Z 0518/0618 23020KT 9999 SCT035 TX11/0519Z TN02/0610Z BECMG 0600/0602 CAVOK =

Estación TUCUMAN

05 - 17:00 TAF SANT 051700Z 0518/0618 VRB04KT 8000 NSC TX21/0618Z TN08/0610Z BECMG 0519/0522 05015KT 9000 BECMG 0602/0605 36005KT 7000 FU SCT030 PROB40 0608/0610 23005KT 2000 BR FU SCT020 BECMG 0615/0617 20010KT 8000 FU FEW030 =

Estación USHUAIA

05 - 17:00 TAF SAWH 051700 0518/0618 23012KT 9999 FEW015 BKN030 TX05/0519Z TN01/0610Z BECMG 0606/0608 34005KT SCT035 BKN050 =

Estación VIEDMA

05 - 17:00 TAF SAVV 051700Z 0518/0618 25015KT 9999 SCT025 TX12/0519Z TN03/0610Z BECMG 0603/0605 20005KT SCT030 BECMG 0606/0608 0500 BCFG NSC BECMG 0614/0616 9999 NSW SCT010 BKN040 =